createdAt,value
2018-03-22T00:00:03.442Z,28.52
2018-03-22T00:02:30.989Z,27.98
2018-03-22T00:05:02.079Z,29.10
2018-03-22T00:07:30.304Z,29.12
2018-03-22T00:09:57.758Z,27.73
2018-03-22T00:12:25.356Z,27.95
2018-03-22T00:14:56.474Z,28.12
2018-03-22T00:17:23.918Z,29.25
2018-03-22T00:19:51.433Z,29.05
2018-03-22T00:22:35.505Z,29.60
2018-03-22T00:25:02.979Z,29.30
2018-03-22T00:27:30.434Z,28.95
2018-03-22T00:29:57.976Z,26.75
2018-03-22T00:32:25.421Z,27.90
2018-03-22T00:34:52.925Z,28.30
2018-03-22T00:37:20.693Z,27.75
2018-03-22T00:39:48.184Z,28.27
2018-03-22T00:42:16.742Z,28.05
2018-03-22T00:44:44.180Z,28.87
2018-03-22T00:47:11.640Z,28.17
2018-03-22T00:49:39.121Z,29.30
2018-03-22T00:52:06.582Z,27.77
2018-03-22T00:54:34.016Z,28.30
2018-03-22T00:57:01.497Z,27.20
2018-03-22T00:59:28.949Z,29.52
2018-03-22T01:01:59.486Z,28.33
2018-03-22T01:04:26.937Z,28.42
2018-03-22T01:06:54.405Z,29.67
2018-03-22T01:09:21.900Z,29.63
2018-03-22T01:11:50.793Z,28.58
2018-03-22T01:14:18.233Z,28.42
2018-03-22T01:16:46.449Z,27.35
2018-03-22T01:19:13.911Z,28.80
2018-03-22T01:21:41.356Z,29.83
2018-03-22T01:24:08.825Z,30.15
2018-03-22T01:26:37.152Z,28.80
2018-03-22T01:29:05.369Z,28.30
2018-03-22T01:31:32.817Z,27.90
2018-03-22T01:34:00.340Z,28.25
2018-03-22T01:36:27.781Z,26.58
2018-03-22T01:38:55.522Z,24.80
2018-03-22T01:41:22.964Z,28.60
2018-03-22T01:43:50.420Z,26.55
2018-03-22T01:52:22.765Z,27.40
2018-03-22T01:54:50.226Z,26.55
2018-03-22T01:57:17.734Z,28.50
2018-03-22T01:59:45.180Z,26.90
2018-03-22T02:02:13.381Z,27.13
2018-03-22T02:04:40.855Z,24.50
2018-03-22T02:07:08.293Z,26.45
2018-03-22T02:09:35.827Z,25.65
2018-03-22T02:12:04.046Z,26.65
2018-03-22T02:14:31.582Z,25.12
2018-03-22T02:16:59.784Z,24.45
2018-03-22T02:19:27.257Z,22.60
2018-03-22T02:21:54.714Z,24.12
2018-03-22T02:24:22.181Z,25.10
2018-03-22T02:26:49.866Z,24.58
2018-03-22T02:29:18.244Z,25.37
2018-03-22T02:31:46.477Z,24.75
2018-03-22T02:34:14.075Z,24.10
2018-03-22T02:36:41.531Z,25.00
2018-03-22T02:39:08.977Z,23.48
2018-03-22T02:44:34.865Z,23.50
2018-03-22T02:47:02.320Z,23.65
2018-03-22T02:49:29.785Z,24.17
2018-03-22T02:51:57.244Z,24.12
2018-03-22T02:54:24.735Z,22.75
2018-03-22T02:56:52.193Z,23.40
2018-03-22T02:59:19.642Z,23.27
2018-03-22T03:01:47.169Z,23.70
2018-03-22T03:04:14.637Z,23.30
2018-03-22T03:06:42.085Z,22.73
2018-03-22T03:09:09.553Z,23.92
2018-03-22T03:11:37.028Z,24.12
2018-03-22T03:14:04.489Z,24.55
2018-03-22T03:16:31.928Z,22.15
2018-03-22T03:18:59.925Z,24.20
2018-03-22T03:21:27.428Z,24.25
2018-03-22T03:23:55.625Z,24.25
2018-03-22T03:26:23.839Z,23.25
2018-03-22T03:28:51.309Z,25.42
2018-03-22T03:31:18.786Z,24.75
2018-03-22T03:33:49.525Z,24.63
2018-03-22T03:36:19.058Z,24.12
2018-03-22T03:38:46.512Z,24.48
2018-03-22T03:41:13.959Z,25.10
2018-03-22T03:43:41.437Z,25.25
2018-03-22T03:46:08.914Z,26.48
2018-03-22T03:48:36.353Z,24.65
2018-03-22T03:51:03.805Z,25.10
2018-03-22T03:53:31.361Z,25.27
2018-03-22T03:55:58.828Z,25.37
2018-03-22T03:58:26.277Z,25.95
2018-03-22T04:00:53.762Z,25.98
2018-03-22T04:03:21.213Z,24.67
2018-03-22T04:05:48.656Z,24.50
2018-03-22T04:08:16.198Z,24.95
2018-03-22T04:10:43.669Z,25.17
2018-03-22T04:13:11.125Z,25.73
2018-03-22T04:15:38.676Z,26.08
2018-03-22T04:18:06.412Z,26.23
2018-03-22T04:20:34.724Z,27.13
2018-03-22T04:23:02.165Z,26.08
2018-03-22T04:25:29.780Z,26.80
2018-03-22T04:27:57.248Z,25.60
2018-03-22T04:30:24.696Z,26.27
2018-03-22T04:32:52.201Z,27.48
2018-03-22T04:35:19.655Z,26.40
2018-03-22T04:37:47.902Z,32.03
2018-03-22T04:40:15.349Z,26.48
2018-03-22T04:42:47.605Z,27.50
2018-03-22T04:45:15.050Z,27.83
2018-03-22T04:47:42.728Z,27.17
2018-03-22T04:50:10.174Z,27.83
2018-03-22T04:52:37.639Z,26.65
2018-03-22T04:55:05.076Z,28.25
2018-03-22T04:57:32.573Z,28.65
2018-03-22T05:00:00.021Z,29.17
2018-03-22T05:02:27.487Z,27.23
2018-03-22T05:05:00.086Z,27.95
2018-03-22T05:07:28.293Z,27.58
2018-03-22T05:09:57.433Z,27.05
2018-03-22T05:12:24.953Z,28.08
2018-03-22T05:14:52.485Z,29.35
2018-03-22T05:17:20.719Z,28.75
2018-03-22T05:19:53.610Z,28.62
2018-03-22T05:22:21.063Z,29.60
2018-03-22T05:24:56.294Z,30.90
2018-03-22T05:27:23.768Z,29.58
2018-03-22T05:29:51.216Z,29.95
2018-03-22T05:35:27.191Z,29.45
2018-03-22T05:38:03.673Z,29.02
2018-03-22T05:40:31.978Z,29.80
2018-03-22T05:43:00.218Z,30.23
2018-03-22T05:45:27.709Z,29.50
2018-03-22T05:47:55.245Z,29.65
2018-03-22T05:50:22.690Z,30.67
2018-03-22T05:52:50.140Z,31.60
2018-03-22T05:55:18.874Z,30.05
2018-03-22T06:00:38.681Z,31.37
2018-03-22T06:03:07.605Z,30.90
2018-03-22T06:05:35.224Z,30.65
2018-03-22T06:08:03.490Z,30.95
2018-03-22T06:10:31.045Z,31.25
2018-03-22T06:12:59.292Z,33.65
2018-03-22T06:15:27.650Z,32.40
2018-03-22T06:17:55.277Z,74.80
2018-03-22T06:20:27.802Z,49.00
2018-03-22T06:22:55.348Z,41.50
2018-03-22T06:25:26.036Z,38.33
2018-03-22T06:27:54.527Z,42.38
2018-03-22T06:30:22.752Z,35.80
2018-03-22T06:32:50.253Z,35.13
2018-03-22T06:35:17.669Z,36.25
2018-03-22T06:37:45.209Z,37.33
2018-03-22T06:40:12.649Z,35.70
2018-03-22T06:42:40.112Z,38.92
2018-03-22T06:45:07.558Z,34.80
2018-03-22T06:47:35.049Z,37.50
2018-03-22T06:50:02.530Z,34.78
2018-03-22T06:52:29.969Z,38.80
2018-03-22T06:54:57.484Z,31.98
2018-03-22T06:57:25.726Z,34.00
2018-03-22T06:59:53.164Z,34.03
2018-03-22T07:02:20.637Z,35.10
2018-03-22T07:04:48.072Z,32.25
2018-03-22T07:07:16.379Z,31.85
2018-03-22T07:09:43.821Z,31.70
2018-03-22T07:12:11.376Z,30.20
2018-03-22T07:14:38.843Z,31.90
2018-03-22T07:17:06.382Z,29.83
2018-03-22T07:19:33.821Z,29.52
2018-03-22T07:22:01.445Z,27.48
2018-03-22T07:24:28.885Z,41.65
2018-03-22T07:26:56.330Z,37.55
2018-03-22T07:29:23.834Z,30.67
2018-03-22T07:31:52.041Z,28.27
2018-03-22T07:34:19.509Z,28.30
2018-03-22T07:36:52.333Z,43.70
2018-03-22T07:39:19.793Z,25.52
2018-03-22T07:41:59.317Z,32.60
2018-03-22T07:44:32.507Z,27.60
2018-03-22T07:47:00.060Z,30.00
2018-03-22T07:49:27.513Z,29.52
2018-03-22T07:51:54.980Z,31.90
2018-03-22T07:54:22.678Z,30.70
2018-03-22T07:56:50.916Z,33.60
2018-03-22T07:59:18.393Z,30.90
2018-03-22T08:01:45.892Z,31.25
2018-03-22T08:04:13.324Z,28.55
2018-03-22T08:06:40.769Z,27.90
2018-03-22T08:09:09.132Z,26.50
2018-03-22T08:11:36.596Z,31.92
2018-03-22T08:14:04.038Z,26.62
2018-03-22T08:16:33.395Z,28.50
2018-03-22T08:19:00.827Z,26.10
2018-03-22T08:27:28.981Z,24.65
2018-03-22T08:29:56.462Z,24.75
2018-03-22T08:32:23.912Z,25.02
2018-03-22T08:34:51.401Z,24.90
2018-03-22T08:37:18.902Z,25.27
2018-03-22T08:39:46.496Z,28.55
2018-03-22T08:42:13.927Z,25.00
2018-03-22T08:44:41.409Z,24.08
2018-03-22T08:47:08.844Z,23.02
2018-03-22T08:49:37.098Z,24.00
2018-03-22T08:52:04.549Z,23.87
2018-03-22T08:54:32.756Z,25.75
2018-03-22T08:57:00.421Z,24.42
2018-03-22T08:59:27.923Z,29.65
2018-03-22T09:01:55.371Z,25.02
2018-03-22T09:04:22.811Z,27.15
2018-03-22T09:06:50.386Z,27.00
2018-03-22T09:09:17.838Z,26.25
2018-03-22T09:11:45.276Z,26.05
2018-03-22T09:14:12.977Z,26.10
2018-03-22T09:16:44.243Z,27.10
2018-03-22T09:19:12.446Z,26.17
2018-03-22T09:21:41.373Z,26.75
2018-03-22T09:24:08.843Z,24.73
2018-03-22T09:26:41.966Z,24.80
2018-03-22T09:29:10.316Z,26.30
2018-03-22T09:31:37.767Z,26.02
2018-03-22T09:34:05.292Z,24.65
2018-03-22T09:36:32.746Z,26.58
2018-03-22T09:39:00.196Z,27.27
2018-03-22T09:41:27.663Z,27.20
2018-03-22T09:43:55.103Z,27.95
2018-03-22T09:46:23.636Z,26.80
2018-03-22T09:48:51.109Z,27.60
2018-03-22T09:51:19.328Z,27.35
2018-03-22T09:53:46.790Z,26.30
2018-03-22T09:56:15.476Z,27.33
2018-03-22T09:58:42.929Z,27.92
2018-03-22T10:01:10.558Z,28.08
2018-03-22T10:03:38.965Z,29.95
2018-03-22T10:06:06.419Z,29.33
2018-03-22T10:08:33.865Z,28.35
2018-03-22T10:11:01.408Z,29.00
2018-03-22T10:13:29.638Z,29.87
2018-03-22T10:15:57.071Z,28.62
2018-03-22T10:18:24.539Z,31.77
2018-03-22T10:20:52.045Z,32.00
2018-03-22T10:23:19.509Z,30.88
2018-03-22T10:25:47.721Z,31.80
2018-03-22T10:28:15.305Z,31.48
2018-03-22T10:30:43.669Z,31.42
2018-03-22T10:33:11.133Z,30.48
2018-03-22T10:35:38.572Z,33.58
2018-03-22T10:38:06.039Z,33.83
2018-03-22T10:40:33.472Z,34.22
2018-03-22T10:43:00.988Z,32.63
2018-03-22T10:45:28.437Z,31.83
2018-03-22T10:47:55.909Z,34.22
2018-03-22T10:50:23.355Z,31.77
2018-03-22T10:52:50.823Z,31.23
2018-03-22T10:55:18.260Z,33.05
2018-03-22T10:57:46.035Z,30.55
2018-03-22T11:00:19.069Z,31.48
2018-03-22T11:02:52.945Z,31.20
2018-03-22T11:05:20.392Z,31.30
2018-03-22T11:07:47.824Z,29.98
2018-03-22T11:10:15.758Z,31.23
2018-03-22T11:12:43.966Z,31.92
2018-03-22T11:15:11.399Z,30.67
2018-03-22T11:17:39.326Z,29.63
2018-03-22T11:20:07.550Z,29.33
2018-03-22T11:22:35.009Z,29.98
2018-03-22T11:25:02.453Z,30.77
2018-03-22T11:27:30.739Z,30.52
2018-03-22T11:30:01.746Z,31.00
2018-03-22T11:32:29.380Z,29.65
2018-03-22T11:34:56.819Z,31.52
2018-03-22T11:37:24.273Z,29.50
2018-03-22T11:39:51.716Z,32.47
2018-03-22T11:42:19.178Z,32.55
2018-03-22T11:44:46.614Z,32.92
2018-03-22T11:47:14.978Z,35.83
2018-03-22T11:49:43.181Z,37.40
2018-03-22T11:52:10.640Z,34.08
2018-03-22T11:54:38.072Z,34.08
2018-03-22T11:57:06.305Z,31.55
2018-03-22T11:59:33.742Z,34.35
2018-03-22T12:02:01.307Z,33.03
2018-03-22T12:04:28.721Z,33.55
2018-03-22T12:06:56.965Z,34.10
2018-03-22T12:09:24.400Z,33.38
2018-03-22T12:11:51.864Z,33.10
2018-03-22T12:14:19.313Z,34.72
2018-03-22T12:16:46.896Z,33.60
2018-03-22T12:19:14.345Z,33.30
2018-03-22T12:21:41.880Z,33.70
2018-03-22T12:24:09.277Z,32.78
2018-03-22T12:26:36.758Z,32.60
2018-03-22T12:29:04.955Z,31.95
2018-03-22T12:31:32.433Z,31.48
2018-03-22T12:33:59.866Z,30.50
2018-03-22T12:36:27.302Z,33.80
2018-03-22T12:38:55.765Z,29.48
2018-03-22T12:41:23.237Z,27.17
2018-03-22T12:43:51.506Z,28.05
2018-03-22T12:46:18.977Z,27.50
2018-03-22T12:48:47.191Z,25.15
2018-03-22T12:51:14.658Z,24.50
2018-03-22T12:53:42.186Z,24.63
2018-03-22T12:56:09.777Z,24.83
2018-03-22T12:58:37.236Z,25.98
2018-03-22T13:01:04.686Z,23.60
2018-03-22T13:03:32.152Z,23.87
2018-03-22T13:05:59.602Z,22.92
2018-03-22T13:08:27.877Z,29.30
2018-03-22T13:10:55.310Z,22.77
2018-03-22T13:13:22.841Z,24.87
2018-03-22T13:15:50.280Z,23.65
2018-03-22T13:18:17.886Z,22.33
2018-03-22T13:20:46.094Z,25.98
2018-03-22T13:23:13.614Z,24.05
2018-03-22T13:25:41.828Z,25.70
2018-03-22T13:28:09.277Z,24.40
2018-03-22T13:30:39.697Z,31.33
2018-03-22T13:33:07.264Z,25.98
2018-03-22T13:35:34.718Z,22.37
2018-03-22T13:38:02.534Z,22.55
2018-03-22T13:40:29.969Z,23.30
2018-03-22T13:42:57.428Z,27.62
2018-03-22T13:45:24.893Z,19.23
2018-03-22T13:47:52.334Z,26.67
2018-03-22T13:50:20.036Z,21.27
2018-03-22T13:52:47.509Z,24.85
2018-03-22T13:55:14.977Z,22.37
2018-03-22T13:57:42.431Z,22.30
2018-03-22T14:00:10.653Z,20.88
2018-03-22T14:02:41.921Z,23.85
2018-03-22T14:05:09.373Z,24.10
2018-03-22T14:07:37.049Z,36.10
2018-03-22T14:10:04.505Z,34.60
2018-03-22T14:12:32.097Z,27.60
2018-03-22T14:14:59.532Z,26.27
2018-03-22T14:17:27.772Z,26.12
2018-03-22T14:19:55.230Z,28.10
2018-03-22T14:22:22.706Z,28.02
2018-03-22T14:24:50.160Z,27.20
2018-03-22T14:27:17.585Z,27.05
2018-03-22T14:29:45.313Z,25.62
2018-03-22T14:32:13.584Z,31.75
2018-03-22T14:34:41.034Z,29.25
2018-03-22T14:37:09.273Z,26.23
2018-03-22T14:39:36.709Z,28.40
2018-03-22T14:42:22.570Z,27.95
2018-03-22T14:44:50.777Z,29.65
2018-03-22T14:47:18.486Z,24.95
2018-03-22T14:49:45.924Z,28.90
2018-03-22T14:52:13.385Z,34.60
2018-03-22T14:54:40.841Z,34.05
2018-03-22T14:57:08.328Z,30.10
2018-03-22T14:59:36.540Z,32.15
2018-03-22T15:02:03.997Z,33.30
2018-03-22T15:04:31.528Z,31.20
2018-03-22T15:06:59.833Z,35.10
2018-03-22T15:09:27.292Z,31.98
2018-03-22T15:11:54.721Z,27.70
2018-03-22T15:14:29.121Z,28.80
2018-03-22T15:16:56.598Z,28.50
2018-03-22T15:19:24.804Z,27.35
2018-03-22T15:21:52.331Z,27.70
2018-03-22T15:24:20.536Z,25.25
2018-03-22T15:26:47.969Z,28.40
2018-03-22T15:29:16.213Z,30.25
2018-03-22T15:31:44.889Z,29.25
2018-03-22T15:34:12.398Z,27.20
2018-03-22T15:36:39.795Z,25.95
2018-03-22T15:39:07.396Z,20.98
2018-03-22T15:41:35.615Z,19.67
2018-03-22T15:44:03.108Z,22.87
2018-03-22T15:46:30.558Z,20.65
2018-03-22T15:48:58.001Z,20.65
2018-03-22T15:51:25.502Z,20.60
2018-03-22T15:53:53.712Z,20.20
2018-03-22T15:56:21.149Z,18.35
2018-03-22T15:58:48.676Z,20.55
2018-03-22T16:04:30.671Z,17.90
2018-03-22T16:06:58.106Z,17.33
2018-03-22T16:09:25.745Z,19.48
2018-03-22T16:11:53.160Z,24.95
2018-03-22T16:14:20.692Z,19.35
2018-03-22T16:16:48.138Z,18.05
2018-03-22T16:19:15.812Z,19.52
2018-03-22T16:21:44.012Z,20.37
2018-03-22T16:24:11.458Z,17.60
2018-03-22T16:26:39.084Z,20.08
2018-03-22T16:29:06.885Z,19.00
2018-03-22T16:31:35.247Z,25.12
2018-03-22T16:34:03.442Z,24.90
2018-03-22T16:36:30.932Z,22.10
2018-03-22T16:39:08.930Z,28.23
2018-03-22T16:41:36.370Z,29.63
2018-03-22T16:44:08.772Z,29.70
2018-03-22T16:46:36.245Z,33.55
2018-03-22T16:49:03.706Z,32.45
2018-03-22T16:51:31.169Z,27.75
2018-03-22T16:53:58.604Z,27.40
2018-03-22T17:02:30.045Z,33.30
2018-03-22T17:04:58.801Z,28.85
2018-03-22T17:07:26.285Z,31.25
2018-03-22T17:09:53.742Z,31.20
2018-03-22T17:12:21.282Z,28.48
2018-03-22T17:14:48.754Z,29.35
2018-03-22T17:17:16.554Z,29.90
2018-03-22T17:19:44.253Z,36.10
2018-03-22T17:22:12.473Z,45.53
2018-03-22T17:24:39.949Z,35.20
2018-03-22T17:27:07.424Z,31.50
2018-03-22T17:29:34.930Z,31.62
2018-03-22T17:32:02.393Z,32.67
2018-03-22T17:34:31.228Z,31.62
2018-03-22T17:36:58.673Z,31.15
2018-03-22T17:39:26.117Z,29.75
2018-03-22T17:41:53.592Z,31.17
2018-03-22T17:44:21.029Z,31.60
2018-03-22T17:46:48.490Z,32.38
2018-03-22T17:49:16.125Z,30.08
2018-03-22T17:51:43.564Z,31.30
2018-03-22T17:54:12.296Z,32.63
2018-03-22T17:56:39.746Z,35.47
2018-03-22T17:59:13.886Z,28.20
2018-03-22T18:01:41.333Z,27.92
2018-03-22T18:04:08.917Z,27.40
2018-03-22T18:06:37.137Z,30.62
2018-03-22T18:09:04.665Z,27.92
2018-03-22T18:11:32.872Z,35.90
2018-03-22T18:14:00.385Z,29.67
2018-03-22T18:16:27.832Z,27.83
2018-03-22T18:18:55.429Z,25.42
2018-03-22T18:21:22.990Z,31.83
2018-03-22T18:23:50.460Z,24.92
2018-03-22T18:26:19.771Z,27.42
2018-03-22T18:28:47.260Z,23.40
2018-03-22T18:31:14.705Z,25.20
2018-03-22T18:33:53.538Z,23.87
2018-03-22T18:36:20.982Z,28.67
2018-03-22T18:38:48.452Z,23.58
2018-03-22T18:41:15.901Z,29.63
2018-03-22T18:43:43.461Z,26.65
2018-03-22T18:46:10.911Z,31.27
2018-03-22T18:48:39.600Z,29.52
2018-03-22T18:51:07.047Z,27.60
2018-03-22T18:53:34.512Z,27.90
2018-03-22T18:56:01.962Z,28.17
2018-03-22T18:58:29.606Z,27.30
2018-03-22T19:01:04.704Z,29.37
2018-03-22T19:03:32.145Z,34.53
2018-03-22T19:05:59.594Z,32.72
2018-03-22T19:08:27.034Z,33.08
2018-03-22T19:10:54.568Z,28.40
2018-03-22T19:13:22.114Z,35.83
2018-03-22T19:15:49.626Z,30.15
2018-03-22T19:18:17.064Z,30.62
2018-03-22T19:20:44.576Z,30.95
2018-03-22T19:23:12.020Z,31.77
2018-03-22T19:25:39.467Z,32.80
2018-03-22T19:28:06.933Z,30.02
2018-03-22T19:30:39.311Z,29.23
2018-03-22T19:33:06.868Z,34.55
2018-03-22T19:35:34.422Z,34.00
2018-03-22T19:38:01.881Z,31.33
2018-03-22T19:40:29.412Z,29.42
2018-03-22T19:42:57.624Z,30.70
2018-03-22T19:48:22.125Z,30.95
2018-03-22T19:50:49.661Z,31.08
2018-03-22T19:53:17.111Z,32.00
2018-03-22T19:55:46.297Z,32.15
2018-03-22T19:58:13.765Z,34.17
2018-03-22T20:00:41.228Z,30.98
2018-03-22T20:03:09.237Z,39.65
2018-03-22T20:05:36.740Z,33.13
2018-03-22T20:08:13.031Z,30.70
2018-03-22T20:10:40.570Z,33.35
2018-03-22T20:13:08.016Z,38.80
2018-03-22T20:15:35.465Z,36.58
2018-03-22T20:18:04.018Z,37.63
2018-03-22T20:20:31.520Z,36.50
2018-03-22T20:22:58.966Z,36.00
2018-03-22T20:25:26.442Z,32.58
2018-03-22T20:27:53.910Z,34.00
2018-03-22T20:30:21.357Z,35.17
2018-03-22T20:32:48.845Z,32.30
2018-03-22T20:35:32.328Z,31.73
2018-03-22T20:38:04.954Z,33.72
2018-03-22T20:40:32.417Z,37.60
2018-03-22T20:42:59.886Z,30.12
2018-03-22T20:45:27.330Z,33.92
2018-03-22T20:47:54.797Z,70.60
2018-03-22T20:50:22.521Z,32.85
2018-03-22T20:52:49.981Z,37.55
2018-03-22T20:55:18.437Z,33.17
2018-03-22T20:57:46.284Z,41.00
2018-03-22T21:00:15.777Z,31.37
2018-03-22T21:02:43.225Z,31.95
2018-03-22T21:05:10.753Z,45.12
2018-03-22T21:19:02.451Z,40.70
2018-03-22T21:21:33.772Z,38.58
2018-03-22T21:24:01.248Z,37.17
2018-03-22T21:26:28.684Z,42.20
2018-03-22T21:28:56.165Z,43.35
2018-03-22T21:31:23.603Z,39.08
2018-03-22T21:33:51.206Z,41.00
2018-03-22T21:36:18.656Z,39.08
2018-03-22T21:38:47.089Z,35.47
2018-03-22T21:41:15.330Z,36.63
2018-03-22T21:43:54.776Z,34.50
2018-03-22T21:46:22.231Z,31.98
2018-03-22T21:48:49.901Z,31.87
2018-03-22T21:51:17.406Z,33.72
2018-03-22T21:53:45.769Z,36.13
2018-03-22T21:56:13.227Z,34.10
2018-03-22T21:58:41.538Z,32.50
2018-03-22T22:01:08.972Z,31.87
2018-03-22T22:03:36.416Z,32.80
2018-03-22T22:06:07.308Z,31.20
2018-03-22T22:08:34.781Z,33.33
2018-03-22T22:11:02.222Z,31.90
2018-03-22T22:13:29.702Z,29.05
2018-03-22T22:15:57.210Z,29.98
2018-03-22T22:18:24.605Z,29.50
2018-03-22T22:20:53.805Z,29.40
2018-03-22T22:23:21.256Z,27.15
2018-03-22T22:25:48.706Z,27.33
2018-03-22T22:28:16.212Z,26.50
2018-03-22T22:30:44.418Z,27.48
2018-03-22T22:33:11.889Z,27.37
2018-03-22T22:35:41.813Z,28.55
2018-03-22T22:38:09.249Z,31.58
2018-03-22T22:40:36.693Z,32.00
2018-03-22T22:43:04.174Z,28.87
2018-03-22T22:45:35.465Z,28.58
2018-03-22T22:48:11.824Z,29.70
2018-03-22T22:50:39.264Z,27.70
2018-03-22T22:53:06.709Z,28.08
2018-03-22T22:55:34.188Z,28.17
2018-03-22T22:58:01.629Z,27.05
2018-03-22T23:00:29.066Z,25.23
2018-03-22T23:02:56.713Z,23.55
2018-03-22T23:05:24.161Z,23.58
2018-03-22T23:10:44.137Z,20.30
2018-03-22T23:13:11.604Z,21.17
2018-03-22T23:15:39.809Z,19.33
2018-03-22T23:18:07.542Z,20.05
2018-03-22T23:20:35.754Z,19.92
2018-03-22T23:23:04.077Z,19.42
2018-03-22T23:25:31.510Z,20.15
2018-03-22T23:27:58.983Z,19.48
2018-03-22T23:33:18.157Z,20.25
2018-03-22T23:35:45.621Z,21.20
2018-03-22T23:38:13.057Z,20.30
2018-03-22T23:40:40.532Z,19.37
2018-03-22T23:43:08.002Z,21.50
2018-03-22T23:45:35.440Z,21.02
2018-03-22T23:56:36.393Z,21.37
2018-03-22T23:59:03.877Z,23.10
